sensor_id;sensor_type;location;lat;lon;timestamp;P1;durP1;ratioP1;P2;durP2;ratioP2
10651;SDS011;5374;42.742;23.266;2023-05-07T00:00:52;10.10;;;8.67;;
10651;SDS011;5374;42.742;23.266;2023-05-07T00:03:40;10.67;;;8.97;;
10651;SDS011;5374;42.742;23.266;2023-05-07T00:06:27;16.10;;;9.07;;
10651;SDS011;5374;42.742;23.266;2023-05-07T00:09:14;14.83;;;8.87;;
10651;SDS011;5374;42.742;23.266;2023-05-07T00:12:03;10.73;;;9.20;;
10651;SDS011;5374;42.742;23.266;2023-05-07T00:14:51;11.87;;;9.33;;
10651;SDS011;5374;42.742;23.266;2023-05-07T00:17:38;13.63;;;9.17;;
10651;SDS011;5374;42.742;23.266;2023-05-07T00:20:27;11.90;;;9.67;;
10651;SDS011;5374;42.742;23.266;2023-05-07T00:23:14;12.60;;;9.27;;
10651;SDS011;5374;42.742;23.266;2023-05-07T00:26:01;11.93;;;8.97;;
10651;SDS011;5374;42.742;23.266;2023-05-07T00:28:49;11.10;;;9.50;;
10651;SDS011;5374;42.742;23.266;2023-05-07T00:31:36;12.03;;;9.80;;
10651;SDS011;5374;42.742;23.266;2023-05-07T00:34:24;13.87;;;11.13;;
10651;SDS011;5374;42.742;23.266;2023-05-07T00:37:11;12.73;;;10.50;;
10651;SDS011;5374;42.742;23.266;2023-05-07T00:39:58;11.23;;;9.93;;
10651;SDS011;5374;42.742;23.266;2023-05-07T00:42:45;11.80;;;9.93;;
10651;SDS011;5374;42.742;23.266;2023-05-07T00:45:37;11.00;;;9.77;;
10651;SDS011;5374;42.742;23.266;2023-05-07T00:48:24;11.80;;;9.97;;
10651;SDS011;5374;42.742;23.266;2023-05-07T00:51:12;12.40;;;10.70;;
10651;SDS011;5374;42.742;23.266;2023-05-07T00:53:59;13.80;;;11.27;;
10651;SDS011;5374;42.742;23.266;2023-05-07T00:56:48;13.37;;;11.47;;
10651;SDS011;5374;42.742;23.266;2023-05-07T00:59:35;11.77;;;10.43;;
10651;SDS011;5374;42.742;23.266;2023-05-07T01:02:24;13.37;;;11.30;;
10651;SDS011;5374;42.742;23.266;2023-05-07T01:05:12;15.70;;;11.50;;
10651;SDS011;5374;42.742;23.266;2023-05-07T01:08:02;14.27;;;10.90;;
10651;SDS011;5374;42.742;23.266;2023-05-07T01:10:51;12.17;;;10.33;;
10651;SDS011;5374;42.742;23.266;2023-05-07T01:13:39;14.20;;;10.60;;
10651;SDS011;5374;42.742;23.266;2023-05-07T01:16:27;11.20;;;9.43;;
10651;SDS011;5374;42.742;23.266;2023-05-07T01:19:16;10.33;;;9.13;;
10651;SDS011;5374;42.742;23.266;2023-05-07T01:22:07;12.20;;;9.70;;
10651;SDS011;5374;42.742;23.266;2023-05-07T01:24:57;11.30;;;9.90;;
10651;SDS011;5374;42.742;23.266;2023-05-07T01:27:44;13.77;;;10.23;;
10651;SDS011;5374;42.742;23.266;2023-05-07T01:30:31;14.10;;;10.93;;
10651;SDS011;5374;42.742;23.266;2023-05-07T01:33:21;22.57;;;17.00;;
10651;SDS011;5374;42.742;23.266;2023-05-07T01:36:08;22.67;;;15.93;;
10651;SDS011;5374;42.742;23.266;2023-05-07T01:38:56;21.47;;;16.40;;
10651;SDS011;5374;42.742;23.266;2023-05-07T01:41:46;26.10;;;17.67;;
10651;SDS011;5374;42.742;23.266;2023-05-07T01:44:33;31.53;;;19.80;;
10651;SDS011;5374;42.742;23.266;2023-05-07T01:47:23;30.37;;;20.33;;
10651;SDS011;5374;42.742;23.266;2023-05-07T01:50:11;24.50;;;16.07;;
10651;SDS011;5374;42.742;23.266;2023-05-07T01:52:59;25.23;;;16.03;;
10651;SDS011;5374;42.742;23.266;2023-05-07T01:55:48;24.10;;;15.40;;
10651;SDS011;5374;42.742;23.266;2023-05-07T01:58:36;17.97;;;12.33;;
10651;SDS011;5374;42.742;23.266;2023-05-07T02:01:23;18.27;;;11.00;;
10651;SDS011;5374;42.742;23.266;2023-05-07T02:04:11;13.40;;;11.27;;
10651;SDS011;5374;42.742;23.266;2023-05-07T02:06:58;16.77;;;9.67;;
10651;SDS011;5374;42.742;23.266;2023-05-07T02:09:45;17.40;;;9.87;;
10651;SDS011;5374;42.742;23.266;2023-05-07T02:12:32;12.47;;;9.47;;
10651;SDS011;5374;42.742;23.266;2023-05-07T02:15:20;9.87;;;8.87;;
10651;SDS011;5374;42.742;23.266;2023-05-07T02:18:12;13.97;;;9.63;;
10651;SDS011;5374;42.742;23.266;2023-05-07T02:20:59;14.67;;;9.10;;
10651;SDS011;5374;42.742;23.266;2023-05-07T02:23:46;10.07;;;8.77;;
10651;SDS011;5374;42.742;23.266;2023-05-07T02:26:33;13.00;;;9.37;;
10651;SDS011;5374;42.742;23.266;2023-05-07T02:29:20;10.33;;;8.73;;
10651;SDS011;5374;42.742;23.266;2023-05-07T02:32:12;9.73;;;8.23;;
10651;SDS011;5374;42.742;23.266;2023-05-07T02:34:59;12.03;;;8.37;;
10651;SDS011;5374;42.742;23.266;2023-05-07T02:37:46;11.77;;;7.87;;
10651;SDS011;5374;42.742;23.266;2023-05-07T02:40:33;8.27;;;7.40;;
10651;SDS011;5374;42.742;23.266;2023-05-07T02:43:24;8.10;;;7.00;;
10651;SDS011;5374;42.742;23.266;2023-05-07T02:46:11;8.83;;;7.47;;
10651;SDS011;5374;42.742;23.266;2023-05-07T02:48:59;7.73;;;7.03;;
10651;SDS011;5374;42.742;23.266;2023-05-07T02:51:46;9.33;;;7.27;;
10651;SDS011;5374;42.742;23.266;2023-05-07T02:54:33;8.97;;;6.97;;
10651;SDS011;5374;42.742;23.266;2023-05-07T02:57:20;12.37;;;7.50;;
10651;SDS011;5374;42.742;23.266;2023-05-07T03:00:11;10.07;;;7.03;;
10651;SDS011;5374;42.742;23.266;2023-05-07T03:02:59;8.53;;;7.63;;
10651;SDS011;5374;42.742;23.266;2023-05-07T03:05:48;9.67;;;6.53;;
10651;SDS011;5374;42.742;23.266;2023-05-07T03:08:35;10.90;;;7.47;;
10651;SDS011;5374;42.742;23.266;2023-05-07T03:11:23;9.93;;;7.27;;
10651;SDS011;5374;42.742;23.266;2023-05-07T03:14:10;9.33;;;7.17;;
10651;SDS011;5374;42.742;23.266;2023-05-07T03:16:57;11.97;;;7.73;;
10651;SDS011;5374;42.742;23.266;2023-05-07T03:19:44;8.43;;;7.43;;
10651;SDS011;5374;42.742;23.266;2023-05-07T03:22:33;9.63;;;7.37;;
10651;SDS011;5374;42.742;23.266;2023-05-07T03:25:20;10.43;;;8.30;;
10651;SDS011;5374;42.742;23.266;2023-05-07T03:28:07;11.40;;;8.30;;
10651;SDS011;5374;42.742;23.266;2023-05-07T03:30:54;9.90;;;8.03;;
10651;SDS011;5374;42.742;23.266;2023-05-07T03:33:49;9.63;;;7.97;;
10651;SDS011;5374;42.742;23.266;2023-05-07T03:36:37;11.23;;;7.83;;
10651;SDS011;5374;42.742;23.266;2023-05-07T03:39:25;10.23;;;8.00;;
10651;SDS011;5374;42.742;23.266;2023-05-07T03:42:13;14.07;;;7.97;;
10651;SDS011;5374;42.742;23.266;2023-05-07T03:45:00;8.87;;;7.97;;
10651;SDS011;5374;42.742;23.266;2023-05-07T03:47:47;10.07;;;8.63;;
10651;SDS011;5374;42.742;23.266;2023-05-07T03:50:34;10.17;;;7.77;;
10651;SDS011;5374;42.742;23.266;2023-05-07T03:53:21;9.27;;;8.37;;
10651;SDS011;5374;42.742;23.266;2023-05-07T03:56:10;9.97;;;8.53;;
10651;SDS011;5374;42.742;23.266;2023-05-07T03:58:57;9.10;;;7.90;;
10651;SDS011;5374;42.742;23.266;2023-05-07T04:01:44;8.77;;;7.87;;
10651;SDS011;5374;42.742;23.266;2023-05-07T04:04:31;10.10;;;8.20;;
10651;SDS011;5374;42.742;23.266;2023-05-07T04:07:18;11.37;;;7.50;;
10651;SDS011;5374;42.742;23.266;2023-05-07T04:10:05;8.63;;;6.80;;
10651;SDS011;5374;42.742;23.266;2023-05-07T04:12:54;7.47;;;6.70;;
10651;SDS011;5374;42.742;23.266;2023-05-07T04:15:42;7.27;;;6.57;;
10651;SDS011;5374;42.742;23.266;2023-05-07T04:18:30;6.63;;;6.03;;
10651;SDS011;5374;42.742;23.266;2023-05-07T04:21:18;6.73;;;6.07;;
10651;SDS011;5374;42.742;23.266;2023-05-07T04:24:06;8.90;;;6.10;;
10651;SDS011;5374;42.742;23.266;2023-05-07T04:26:53;7.60;;;6.67;;
10651;SDS011;5374;42.742;23.266;2023-05-07T04:29:42;7.73;;;5.90;;
10651;SDS011;5374;42.742;23.266;2023-05-07T04:32:32;6.60;;;6.00;;
10651;SDS011;5374;42.742;23.266;2023-05-07T04:35:19;6.40;;;5.63;;
10651;SDS011;5374;42.742;23.266;2023-05-07T04:38:06;7.93;;;5.93;;
10651;SDS011;5374;42.742;23.266;2023-05-07T04:40:53;7.40;;;5.57;;
10651;SDS011;5374;42.742;23.266;2023-05-07T04:43:41;8.50;;;5.90;;
10651;SDS011;5374;42.742;23.266;2023-05-07T04:46:30;7.57;;;6.03;;
10651;SDS011;5374;42.742;23.266;2023-05-07T04:49:17;6.20;;;5.60;;
10651;SDS011;5374;42.742;23.266;2023-05-07T04:52:04;8.27;;;5.83;;
10651;SDS011;5374;42.742;23.266;2023-05-07T04:54:51;9.83;;;6.30;;
10651;SDS011;5374;42.742;23.266;2023-05-07T04:57:38;6.87;;;5.63;;
10651;SDS011;5374;42.742;23.266;2023-05-07T05:00:26;7.07;;;5.57;;
10651;SDS011;5374;42.742;23.266;2023-05-07T05:03:15;7.93;;;6.07;;
10651;SDS011;5374;42.742;23.266;2023-05-07T05:06:02;6.77;;;6.13;;
10651;SDS011;5374;42.742;23.266;2023-05-07T05:08:50;7.10;;;6.40;;
10651;SDS011;5374;42.742;23.266;2023-05-07T05:11:37;6.70;;;5.60;;
10651;SDS011;5374;42.742;23.266;2023-05-07T05:14:25;6.50;;;5.90;;
10651;SDS011;5374;42.742;23.266;2023-05-07T05:17:12;6.87;;;6.23;;
10651;SDS011;5374;42.742;23.266;2023-05-07T05:20:01;9.73;;;6.40;;
10651;SDS011;5374;42.742;23.266;2023-05-07T05:22:48;6.90;;;6.20;;
10651;SDS011;5374;42.742;23.266;2023-05-07T05:25:35;6.87;;;6.27;;
10651;SDS011;5374;42.742;23.266;2023-05-07T05:28:22;10.33;;;6.47;;
10651;SDS011;5374;42.742;23.266;2023-05-07T05:31:10;17.27;;;6.83;;
10651;SDS011;5374;42.742;23.266;2023-05-07T05:33:57;11.40;;;6.90;;
10651;SDS011;5374;42.742;23.266;2023-05-07T05:36:46;8.03;;;6.77;;
10651;SDS011;5374;42.742;23.266;2023-05-07T05:39:33;7.50;;;6.80;;
10651;SDS011;5374;42.742;23.266;2023-05-07T05:42:20;10.07;;;7.40;;
10651;SDS011;5374;42.742;23.266;2023-05-07T05:45:08;9.37;;;6.37;;
10651;SDS011;5374;42.742;23.266;2023-05-07T05:47:56;10.07;;;7.00;;
10651;SDS011;5374;42.742;23.266;2023-05-07T05:50:43;9.73;;;7.23;;
10651;SDS011;5374;42.742;23.266;2023-05-07T05:53:31;8.10;;;7.40;;
10651;SDS011;5374;42.742;23.266;2023-05-07T05:56:19;8.03;;;7.33;;
10651;SDS011;5374;42.742;23.266;2023-05-07T05:59:06;8.93;;;8.03;;
10651;SDS011;5374;42.742;23.266;2023-05-07T06:01:53;9.30;;;7.27;;
10651;SDS011;5374;42.742;23.266;2023-05-07T06:04:41;8.77;;;7.77;;
10651;SDS011;5374;42.742;23.266;2023-05-07T06:07:28;8.50;;;7.70;;
10651;SDS011;5374;42.742;23.266;2023-05-07T06:10:16;8.67;;;7.70;;
10651;SDS011;5374;42.742;23.266;2023-05-07T06:13:04;8.60;;;7.67;;
10651;SDS011;5374;42.742;23.266;2023-05-07T06:15:51;9.80;;;7.30;;
10651;SDS011;5374;42.742;23.266;2023-05-07T06:18:43;10.17;;;7.77;;
10651;SDS011;5374;42.742;23.266;2023-05-07T06:21:32;9.00;;;8.10;;
10651;SDS011;5374;42.742;23.266;2023-05-07T06:24:19;9.13;;;7.83;;
10651;SDS011;5374;42.742;23.266;2023-05-07T06:27:07;10.17;;;8.33;;
10651;SDS011;5374;42.742;23.266;2023-05-07T06:29:54;8.37;;;7.57;;
10651;SDS011;5374;42.742;23.266;2023-05-07T06:32:42;10.10;;;7.80;;
10651;SDS011;5374;42.742;23.266;2023-05-07T06:35:29;9.27;;;8.43;;
10651;SDS011;5374;42.742;23.266;2023-05-07T06:38:16;9.37;;;8.47;;
10651;SDS011;5374;42.742;23.266;2023-05-07T06:41:05;8.83;;;7.93;;
10651;SDS011;5374;42.742;23.266;2023-05-07T06:43:54;9.97;;;8.90;;
10651;SDS011;5374;42.742;23.266;2023-05-07T06:46:41;9.23;;;8.30;;
10651;SDS011;5374;42.742;23.266;2023-05-07T06:49:28;10.90;;;8.20;;
10651;SDS011;5374;42.742;23.266;2023-05-07T06:52:15;9.47;;;8.57;;
10651;SDS011;5374;42.742;23.266;2023-05-07T06:55:03;9.33;;;8.43;;
10651;SDS011;5374;42.742;23.266;2023-05-07T06:57:50;9.20;;;8.30;;
10651;SDS011;5374;42.742;23.266;2023-05-07T07:00:39;9.67;;;8.73;;
10651;SDS011;5374;42.742;23.266;2023-05-07T07:03:26;9.53;;;8.53;;
10651;SDS011;5374;42.742;23.266;2023-05-07T07:06:14;8.63;;;7.80;;
10651;SDS011;5374;42.742;23.266;2023-05-07T07:09:01;9.10;;;8.13;;
10651;SDS011;5374;42.742;23.266;2023-05-07T07:11:48;9.77;;;8.87;;
10651;SDS011;5374;42.742;23.266;2023-05-07T07:14:35;9.63;;;8.20;;
10651;SDS011;5374;42.742;23.266;2023-05-07T07:17:24;10.23;;;7.97;;
10651;SDS011;5374;42.742;23.266;2023-05-07T07:20:11;11.47;;;8.00;;
10651;SDS011;5374;42.742;23.266;2023-05-07T07:22:58;10.37;;;8.50;;
10651;SDS011;5374;42.742;23.266;2023-05-07T07:25:45;9.83;;;8.47;;
10651;SDS011;5374;42.742;23.266;2023-05-07T07:28:33;17.70;;;8.67;;
10651;SDS011;5374;42.742;23.266;2023-05-07T07:31:20;11.50;;;8.70;;
10651;SDS011;5374;42.742;23.266;2023-05-07T07:34:08;10.00;;;8.63;;
10651;SDS011;5374;42.742;23.266;2023-05-07T07:36:56;11.97;;;8.47;;
10651;SDS011;5374;42.742;23.266;2023-05-07T07:39:43;11.50;;;7.80;;
10651;SDS011;5374;42.742;23.266;2023-05-07T07:42:30;10.20;;;8.30;;
10651;SDS011;5374;42.742;23.266;2023-05-07T07:45:17;9.63;;;7.70;;
10651;SDS011;5374;42.742;23.266;2023-05-07T07:48:05;12.13;;;7.63;;
10651;SDS011;5374;42.742;23.266;2023-05-07T07:50:53;10.07;;;7.30;;
10651;SDS011;5374;42.742;23.266;2023-05-07T07:53:40;7.07;;;6.47;;
10651;SDS011;5374;42.742;23.266;2023-05-07T07:56:28;8.23;;;6.60;;
10651;SDS011;5374;42.742;23.266;2023-05-07T07:59:16;26.40;;;7.57;;
10651;SDS011;5374;42.742;23.266;2023-05-07T08:02:04;8.63;;;6.77;;
10651;SDS011;5374;42.742;23.266;2023-05-07T08:04:51;14.10;;;7.20;;
10651;SDS011;5374;42.742;23.266;2023-05-07T08:07:40;10.63;;;6.50;;
10651;SDS011;5374;42.742;23.266;2023-05-07T08:10:27;6.77;;;6.17;;
10651;SDS011;5374;42.742;23.266;2023-05-07T08:13:19;7.67;;;6.80;;
10651;SDS011;5374;42.742;23.266;2023-05-07T08:16:23;8.23;;;6.30;;
10651;SDS011;5374;42.742;23.266;2023-05-07T08:19:43;6.40;;;5.80;;
10651;SDS011;5374;42.742;23.266;2023-05-07T08:22:33;9.80;;;6.50;;
10651;SDS011;5374;42.742;23.266;2023-05-07T08:25:21;7.27;;;6.17;;
10651;SDS011;5374;42.742;23.266;2023-05-07T08:28:09;8.87;;;5.60;;
10651;SDS011;5374;42.742;23.266;2023-05-07T08:30:56;9.23;;;7.03;;
10651;SDS011;5374;42.742;23.266;2023-05-07T08:33:50;85.37;;;11.03;;
10651;SDS011;5374;42.742;23.266;2023-05-07T08:36:46;15.23;;;6.43;;
10651;SDS011;5374;42.742;23.266;2023-05-07T08:39:36;8.43;;;6.00;;
10651;SDS011;5374;42.742;23.266;2023-05-07T08:42:39;9.90;;;5.73;;
10651;SDS011;5374;42.742;23.266;2023-05-07T08:48:50;13.73;;;6.17;;
10651;SDS011;5374;42.742;23.266;2023-05-07T08:51:43;5.80;;;5.30;;
10651;SDS011;5374;42.742;23.266;2023-05-07T08:54:42;7.67;;;5.30;;
10651;SDS011;5374;42.742;23.266;2023-05-07T08:57:30;5.60;;;5.07;;
10651;SDS011;5374;42.742;23.266;2023-05-07T09:00:18;7.17;;;5.27;;
10651;SDS011;5374;42.742;23.266;2023-05-07T09:03:06;5.73;;;4.77;;
10651;SDS011;5374;42.742;23.266;2023-05-07T09:05:53;6.27;;;4.10;;
10651;SDS011;5374;42.742;23.266;2023-05-07T09:08:40;9.53;;;4.60;;
10651;SDS011;5374;42.742;23.266;2023-05-07T09:11:27;4.67;;;3.63;;
10651;SDS011;5374;42.742;23.266;2023-05-07T09:14:14;5.40;;;3.60;;
10651;SDS011;5374;42.742;23.266;2023-05-07T09:17:05;11.53;;;4.33;;
10651;SDS011;5374;42.742;23.266;2023-05-07T09:20:02;5.80;;;3.80;;
10651;SDS011;5374;42.742;23.266;2023-05-07T09:23:05;6.90;;;4.30;;
10651;SDS011;5374;42.742;23.266;2023-05-07T09:25:55;6.83;;;4.47;;
10651;SDS011;5374;42.742;23.266;2023-05-07T09:29:02;4.90;;;4.17;;
10651;SDS011;5374;42.742;23.266;2023-05-07T09:31:56;5.73;;;4.07;;
10651;SDS011;5374;42.742;23.266;2023-05-07T09:34:47;4.60;;;3.97;;
10651;SDS011;5374;42.742;23.266;2023-05-07T09:37:34;4.77;;;4.20;;
10651;SDS011;5374;42.742;23.266;2023-05-07T09:40:22;4.97;;;3.70;;
10651;SDS011;5374;42.742;23.266;2023-05-07T09:43:10;4.90;;;4.27;;
10651;SDS011;5374;42.742;23.266;2023-05-07T09:45:59;6.57;;;3.90;;
10651;SDS011;5374;42.742;23.266;2023-05-07T09:48:49;3.87;;;3.43;;
10651;SDS011;5374;42.742;23.266;2023-05-07T09:51:41;4.70;;;3.70;;
10651;SDS011;5374;42.742;23.266;2023-05-07T09:54:35;8.70;;;3.60;;
10651;SDS011;5374;42.742;23.266;2023-05-07T09:57:23;5.10;;;3.40;;
10651;SDS011;5374;42.742;23.266;2023-05-07T10:00:11;5.87;;;4.20;;
10651;SDS011;5374;42.742;23.266;2023-05-07T10:03:00;4.33;;;3.70;;
10651;SDS011;5374;42.742;23.266;2023-05-07T10:05:49;7.80;;;3.70;;
10651;SDS011;5374;42.742;23.266;2023-05-07T10:08:39;6.53;;;3.60;;
10651;SDS011;5374;42.742;23.266;2023-05-07T10:11:27;6.60;;;3.60;;
10651;SDS011;5374;42.742;23.266;2023-05-07T10:14:15;3.67;;;3.33;;
10651;SDS011;5374;42.742;23.266;2023-05-07T10:17:02;5.93;;;3.97;;
10651;SDS011;5374;42.742;23.266;2023-05-07T10:19:51;3.70;;;3.33;;
10651;SDS011;5374;42.742;23.266;2023-05-07T10:22:44;4.93;;;3.50;;
10651;SDS011;5374;42.742;23.266;2023-05-07T10:28:59;3.97;;;3.50;;
10651;SDS011;5374;42.742;23.266;2023-05-07T10:32:06;4.47;;;2.97;;
10651;SDS011;5374;42.742;23.266;2023-05-07T10:35:06;11.30;;;4.50;;
10651;SDS011;5374;42.742;23.266;2023-05-07T10:37:57;6.63;;;3.00;;
10651;SDS011;5374;42.742;23.266;2023-05-07T10:40:44;4.23;;;3.00;;
10651;SDS011;5374;42.742;23.266;2023-05-07T10:43:40;3.80;;;3.50;;
10651;SDS011;5374;42.742;23.266;2023-05-07T10:46:30;3.77;;;3.37;;
10651;SDS011;5374;42.742;23.266;2023-05-07T10:49:20;3.90;;;3.27;;
10651;SDS011;5374;42.742;23.266;2023-05-07T10:52:11;3.43;;;3.13;;
10651;SDS011;5374;42.742;23.266;2023-05-07T10:58:22;3.90;;;3.20;;
10651;SDS011;5374;42.742;23.266;2023-05-07T11:01:10;5.60;;;3.23;;
10651;SDS011;5374;42.742;23.266;2023-05-07T11:04:15;3.83;;;3.23;;
10651;SDS011;5374;42.742;23.266;2023-05-07T11:07:24;4.73;;;3.17;;
10651;SDS011;5374;42.742;23.266;2023-05-07T11:10:14;3.27;;;2.97;;
10651;SDS011;5374;42.742;23.266;2023-05-07T11:13:02;4.53;;;2.90;;
10651;SDS011;5374;42.742;23.266;2023-05-07T11:15:49;24.87;;;4.00;;
10651;SDS011;5374;42.742;23.266;2023-05-07T11:18:46;5.03;;;3.17;;
10651;SDS011;5374;42.742;23.266;2023-05-07T11:21:37;8.93;;;3.13;;
10651;SDS011;5374;42.742;23.266;2023-05-07T11:24:25;21.20;;;4.30;;
10651;SDS011;5374;42.742;23.266;2023-05-07T11:27:12;5.80;;;3.00;;
10651;SDS011;5374;42.742;23.266;2023-05-07T11:30:00;7.67;;;2.97;;
10651;SDS011;5374;42.742;23.266;2023-05-07T11:32:50;8.00;;;3.00;;
10651;SDS011;5374;42.742;23.266;2023-05-07T11:35:43;5.50;;;2.93;;
10651;SDS011;5374;42.742;23.266;2023-05-07T11:38:34;3.87;;;2.73;;
10651;SDS011;5374;42.742;23.266;2023-05-07T11:41:22;3.23;;;2.93;;
10651;SDS011;5374;42.742;23.266;2023-05-07T11:44:09;3.77;;;2.90;;
10651;SDS011;5374;42.742;23.266;2023-05-07T11:46:56;3.37;;;3.07;;
10651;SDS011;5374;42.742;23.266;2023-05-07T11:49:45;3.90;;;2.47;;
10651;SDS011;5374;42.742;23.266;2023-05-07T11:52:33;4.17;;;3.20;;
10651;SDS011;5374;42.742;23.266;2023-05-07T11:55:23;7.13;;;2.90;;
10651;SDS011;5374;42.742;23.266;2023-05-07T11:58:12;5.63;;;2.90;;
10651;SDS011;5374;42.742;23.266;2023-05-07T12:00:59;3.27;;;2.90;;
10651;SDS011;5374;42.742;23.266;2023-05-07T12:03:46;3.57;;;2.80;;
10651;SDS011;5374;42.742;23.266;2023-05-07T12:06:36;15.97;;;3.73;;
10651;SDS011;5374;42.742;23.266;2023-05-07T12:09:24;9.50;;;3.50;;
10651;SDS011;5374;42.742;23.266;2023-05-07T12:12:13;3.23;;;2.57;;
10651;SDS011;5374;42.742;23.266;2023-05-07T12:15:02;8.27;;;3.10;;
10651;SDS011;5374;42.742;23.266;2023-05-07T12:17:50;2.73;;;2.50;;
10651;SDS011;5374;42.742;23.266;2023-05-07T12:20:38;5.83;;;2.70;;
10651;SDS011;5374;42.742;23.266;2023-05-07T12:23:25;6.80;;;2.80;;
10651;SDS011;5374;42.742;23.266;2023-05-07T12:26:13;9.27;;;3.10;;
10651;SDS011;5374;42.742;23.266;2023-05-07T12:29:02;18.23;;;3.17;;
10651;SDS011;5374;42.742;23.266;2023-05-07T12:31:49;6.57;;;2.60;;
10651;SDS011;5374;42.742;23.266;2023-05-07T12:34:37;15.73;;;3.67;;
10651;SDS011;5374;42.742;23.266;2023-05-07T12:37:24;8.33;;;3.00;;
10651;SDS011;5374;42.742;23.266;2023-05-07T12:40:13;6.23;;;2.73;;
10651;SDS011;5374;42.742;23.266;2023-05-07T12:43:01;3.60;;;2.70;;
10651;SDS011;5374;42.742;23.266;2023-05-07T12:45:50;6.37;;;3.10;;
10651;SDS011;5374;42.742;23.266;2023-05-07T12:48:43;4.23;;;2.80;;
10651;SDS011;5374;42.742;23.266;2023-05-07T12:51:31;8.67;;;2.80;;
10651;SDS011;5374;42.742;23.266;2023-05-07T12:54:27;7.77;;;2.40;;
10651;SDS011;5374;42.742;23.266;2023-05-07T12:57:15;2.83;;;2.50;;
10651;SDS011;5374;42.742;23.266;2023-05-07T13:00:06;4.17;;;2.70;;
10651;SDS011;5374;42.742;23.266;2023-05-07T13:02:56;2.97;;;2.67;;
10651;SDS011;5374;42.742;23.266;2023-05-07T13:05:45;11.23;;;3.10;;
10651;SDS011;5374;42.742;23.266;2023-05-07T13:08:33;5.57;;;2.83;;
10651;SDS011;5374;42.742;23.266;2023-05-07T13:11:21;5.90;;;3.43;;
10651;SDS011;5374;42.742;23.266;2023-05-07T13:14:10;3.83;;;2.70;;
10651;SDS011;5374;42.742;23.266;2023-05-07T13:16:57;3.93;;;2.60;;
10651;SDS011;5374;42.742;23.266;2023-05-07T13:19:46;2.97;;;2.73;;
10651;SDS011;5374;42.742;23.266;2023-05-07T13:22:33;3.37;;;2.70;;
10651;SDS011;5374;42.742;23.266;2023-05-07T13:25:24;12.20;;;3.70;;
10651;SDS011;5374;42.742;23.266;2023-05-07T13:28:12;5.33;;;2.90;;
10651;SDS011;5374;42.742;23.266;2023-05-07T13:30:59;2.90;;;2.60;;
10651;SDS011;5374;42.742;23.266;2023-05-07T13:33:46;7.23;;;3.50;;
10651;SDS011;5374;42.742;23.266;2023-05-07T13:36:35;21.93;;;4.23;;
10651;SDS011;5374;42.742;23.266;2023-05-07T13:39:30;10.73;;;3.50;;
10651;SDS011;5374;42.742;23.266;2023-05-07T13:42:36;10.07;;;3.50;;
10651;SDS011;5374;42.742;23.266;2023-05-07T13:45:24;5.27;;;2.67;;
10651;SDS011;5374;42.742;23.266;2023-05-07T13:48:12;9.23;;;3.30;;
10651;SDS011;5374;42.742;23.266;2023-05-07T13:50:59;24.10;;;3.70;;
10651;SDS011;5374;42.742;23.266;2023-05-07T13:53:48;7.10;;;3.13;;
10651;SDS011;5374;42.742;23.266;2023-05-07T13:56:35;3.57;;;2.93;;
10651;SDS011;5374;42.742;23.266;2023-05-07T13:59:22;11.03;;;3.20;;
10651;SDS011;5374;42.742;23.266;2023-05-07T14:02:10;18.47;;;5.20;;
10651;SDS011;5374;42.742;23.266;2023-05-07T14:04:57;6.13;;;2.90;;
10651;SDS011;5374;42.742;23.266;2023-05-07T14:07:45;8.47;;;2.80;;
10651;SDS011;5374;42.742;23.266;2023-05-07T14:10:34;7.77;;;3.80;;
10651;SDS011;5374;42.742;23.266;2023-05-07T14:13:21;8.60;;;3.67;;
10651;SDS011;5374;42.742;23.266;2023-05-07T14:16:08;5.43;;;2.97;;
10651;SDS011;5374;42.742;23.266;2023-05-07T14:18:55;3.00;;;2.70;;
10651;SDS011;5374;42.742;23.266;2023-05-07T14:21:42;15.23;;;3.03;;
10651;SDS011;5374;42.742;23.266;2023-05-07T14:24:29;5.63;;;3.10;;
10651;SDS011;5374;42.742;23.266;2023-05-07T14:27:18;9.83;;;2.90;;
10651;SDS011;5374;42.742;23.266;2023-05-07T14:30:06;4.80;;;2.97;;
10651;SDS011;5374;42.742;23.266;2023-05-07T14:32:53;23.20;;;4.00;;
10651;SDS011;5374;42.742;23.266;2023-05-07T14:35:40;11.50;;;3.40;;
10651;SDS011;5374;42.742;23.266;2023-05-07T14:38:32;6.07;;;3.47;;
10651;SDS011;5374;42.742;23.266;2023-05-07T14:41:19;11.37;;;3.40;;
10651;SDS011;5374;42.742;23.266;2023-05-07T14:44:08;9.13;;;3.97;;
10651;SDS011;5374;42.742;23.266;2023-05-07T14:46:56;5.03;;;3.00;;
10651;SDS011;5374;42.742;23.266;2023-05-07T14:49:43;9.37;;;3.10;;
10651;SDS011;5374;42.742;23.266;2023-05-07T14:52:30;10.47;;;3.87;;
10651;SDS011;5374;42.742;23.266;2023-05-07T14:55:17;8.50;;;4.17;;
10651;SDS011;5374;42.742;23.266;2023-05-07T14:58:04;27.57;;;4.77;;
10651;SDS011;5374;42.742;23.266;2023-05-07T15:00:53;4.37;;;2.73;;
10651;SDS011;5374;42.742;23.266;2023-05-07T15:03:40;3.67;;;2.73;;
10651;SDS011;5374;42.742;23.266;2023-05-07T15:06:27;9.13;;;3.07;;
10651;SDS011;5374;42.742;23.266;2023-05-07T15:09:16;6.50;;;3.03;;
10651;SDS011;5374;42.742;23.266;2023-05-07T15:12:03;10.37;;;3.30;;
10651;SDS011;5374;42.742;23.266;2023-05-07T15:14:51;45.07;;;6.43;;
10651;SDS011;5374;42.742;23.266;2023-05-07T15:17:39;16.63;;;3.70;;
10651;SDS011;5374;42.742;23.266;2023-05-07T15:20:26;9.07;;;2.80;;
10651;SDS011;5374;42.742;23.266;2023-05-07T15:23:13;6.67;;;3.30;;
10651;SDS011;5374;42.742;23.266;2023-05-07T15:26:01;4.80;;;2.90;;
10651;SDS011;5374;42.742;23.266;2023-05-07T15:28:48;5.37;;;2.93;;
10651;SDS011;5374;42.742;23.266;2023-05-07T15:31:35;5.37;;;3.27;;
10651;SDS011;5374;42.742;23.266;2023-05-07T15:34:25;4.73;;;3.10;;
10651;SDS011;5374;42.742;23.266;2023-05-07T15:37:12;9.03;;;3.07;;
10651;SDS011;5374;42.742;23.266;2023-05-07T15:39:59;6.13;;;2.90;;
10651;SDS011;5374;42.742;23.266;2023-05-07T15:42:47;59.20;;;7.17;;
10651;SDS011;5374;42.742;23.266;2023-05-07T15:45:38;13.17;;;3.90;;
10651;SDS011;5374;42.742;23.266;2023-05-07T15:48:26;14.83;;;3.93;;
10651;SDS011;5374;42.742;23.266;2023-05-07T15:51:15;12.13;;;3.60;;
10651;SDS011;5374;42.742;23.266;2023-05-07T15:54:03;31.03;;;5.27;;
10651;SDS011;5374;42.742;23.266;2023-05-07T15:56:50;14.73;;;3.73;;
10651;SDS011;5374;42.742;23.266;2023-05-07T15:59:37;10.23;;;3.73;;
10651;SDS011;5374;42.742;23.266;2023-05-07T16:02:24;3.83;;;2.90;;
10651;SDS011;5374;42.742;23.266;2023-05-07T16:05:11;4.67;;;2.80;;
10651;SDS011;5374;42.742;23.266;2023-05-07T16:08:00;6.17;;;3.50;;
10651;SDS011;5374;42.742;23.266;2023-05-07T16:10:48;4.53;;;3.63;;
10651;SDS011;5374;42.742;23.266;2023-05-07T16:13:35;3.93;;;3.57;;
10651;SDS011;5374;42.742;23.266;2023-05-07T16:16:22;11.73;;;3.60;;
10651;SDS011;5374;42.742;23.266;2023-05-07T16:19:14;7.50;;;3.53;;
10651;SDS011;5374;42.742;23.266;2023-05-07T16:22:01;3.40;;;3.10;;
10651;SDS011;5374;42.742;23.266;2023-05-07T16:24:49;6.33;;;3.47;;
10651;SDS011;5374;42.742;23.266;2023-05-07T16:27:37;7.07;;;3.73;;
10651;SDS011;5374;42.742;23.266;2023-05-07T16:30:24;6.23;;;3.50;;
10651;SDS011;5374;42.742;23.266;2023-05-07T16:33:11;5.77;;;3.30;;
10651;SDS011;5374;42.742;23.266;2023-05-07T16:35:58;6.37;;;3.30;;
10651;SDS011;5374;42.742;23.266;2023-05-07T16:38:46;5.13;;;3.57;;
10651;SDS011;5374;42.742;23.266;2023-05-07T16:41:35;6.87;;;4.17;;
10651;SDS011;5374;42.742;23.266;2023-05-07T16:44:22;5.57;;;4.00;;
10651;SDS011;5374;42.742;23.266;2023-05-07T16:47:09;6.63;;;3.67;;
10651;SDS011;5374;42.742;23.266;2023-05-07T16:49:56;4.60;;;3.60;;
10651;SDS011;5374;42.742;23.266;2023-05-07T16:52:44;7.60;;;4.60;;
10651;SDS011;5374;42.742;23.266;2023-05-07T16:55:32;9.30;;;5.83;;
10651;SDS011;5374;42.742;23.266;2023-05-07T16:58:24;21.20;;;15.33;;
10651;SDS011;5374;42.742;23.266;2023-05-07T17:01:12;10.33;;;7.43;;